createdAt,value
2019-03-26T00:02:14.596Z,80.98
2019-03-26T00:04:45.287Z,81.34
2019-03-26T00:07:16.014Z,81.59
2019-03-26T00:09:46.911Z,81.95
2019-03-26T00:12:17.989Z,82.30
2019-03-26T00:14:48.700Z,82.63
2019-03-26T00:17:19.436Z,82.88
2019-03-26T00:19:50.689Z,83.21
2019-03-26T00:22:21.752Z,83.61
2019-03-26T00:24:52.435Z,83.92
2019-03-26T00:27:23.080Z,84.17
2019-03-26T00:29:54.096Z,84.24
2019-03-26T00:32:24.763Z,84.35
2019-03-26T00:34:55.452Z,84.43
2019-03-26T00:37:26.170Z,84.53
2019-03-26T00:39:57.403Z,84.68
2019-03-26T00:42:28.405Z,84.86
2019-03-26T00:44:59.079Z,85.00
2019-03-26T00:47:29.773Z,85.14
2019-03-26T00:50:00.463Z,85.09
2019-03-26T00:52:31.162Z,85.17
2019-03-26T00:55:01.826Z,85.26
2019-03-26T00:57:32.539Z,85.37
2019-03-26T01:00:03.787Z,85.52
2019-03-26T01:02:34.548Z,85.67
2019-03-26T01:05:05.497Z,85.82
2019-03-26T01:07:36.281Z,85.94
2019-03-26T01:10:09.514Z,86.07
2019-03-26T01:12:40.243Z,86.33
2019-03-26T01:15:10.992Z,86.59
2019-03-26T01:17:41.712Z,86.73
2019-03-26T01:20:12.777Z,86.78
2019-03-26T01:22:43.447Z,86.82
2019-03-26T01:25:14.130Z,86.86
2019-03-26T01:27:44.807Z,86.92
2019-03-26T01:30:15.660Z,87.01
2019-03-26T01:32:46.283Z,87.04
2019-03-26T01:35:17.000Z,87.06
2019-03-26T01:37:47.648Z,86.96
2019-03-26T01:40:18.350Z,86.96
2019-03-26T01:42:49.341Z,86.90
2019-03-26T01:45:20.040Z,86.96
2019-03-26T01:47:50.664Z,86.82
2019-03-26T01:50:21.584Z,86.92
2019-03-26T01:52:52.288Z,87.25
2019-03-26T01:55:23.110Z,87.44
2019-03-26T01:57:53.809Z,87.64
2019-03-26T02:00:24.526Z,88.00
2019-03-26T02:02:55.195Z,88.28
2019-03-26T02:05:25.919Z,88.42
2019-03-26T02:07:56.646Z,88.39
2019-03-26T02:10:27.395Z,88.37
2019-03-26T02:12:58.113Z,88.40
2019-03-26T02:15:33.786Z,88.44
2019-03-26T02:18:06.947Z,88.31
2019-03-26T02:20:37.612Z,88.07
2019-03-26T02:23:08.757Z,87.98
2019-03-26T02:25:39.432Z,88.10
2019-03-26T02:28:10.088Z,88.13
2019-03-26T02:30:40.860Z,88.13
2019-03-26T02:33:11.921Z,88.09
2019-03-26T02:35:42.586Z,87.84
2019-03-26T02:38:13.257Z,87.93
2019-03-26T02:40:43.968Z,87.79
2019-03-26T02:43:14.660Z,87.83
2019-03-26T02:45:45.417Z,88.00
2019-03-26T02:48:16.454Z,88.14
2019-03-26T02:50:47.233Z,88.18
2019-03-26T02:53:17.922Z,88.41
2019-03-26T02:55:48.617Z,88.51
2019-03-26T02:58:19.321Z,88.50
2019-03-26T03:00:50.181Z,88.51
2019-03-26T03:03:20.913Z,88.68
2019-03-26T03:05:51.646Z,88.66
2019-03-26T03:08:22.362Z,88.38
2019-03-26T03:10:53.096Z,88.36
2019-03-26T03:13:23.887Z,88.50
2019-03-26T03:15:54.863Z,88.58
2019-03-26T03:18:25.826Z,88.69
2019-03-26T03:20:56.501Z,88.83
2019-03-26T03:23:27.723Z,88.82
2019-03-26T03:25:58.363Z,88.74
2019-03-26T03:28:29.163Z,89.13
2019-03-26T03:30:59.827Z,89.76
2019-03-26T03:33:31.152Z,90.17
2019-03-26T03:36:02.162Z,90.69
2019-03-26T03:38:32.866Z,90.99
2019-03-26T03:41:03.941Z,91.17
2019-03-26T03:43:34.627Z,91.25
2019-03-26T03:46:06.172Z,91.29
2019-03-26T03:48:37.667Z,91.32
2019-03-26T03:51:10.256Z,91.37
2019-03-26T03:53:41.150Z,91.41
2019-03-26T03:56:13.545Z,91.58
2019-03-26T03:58:48.373Z,91.93
2019-03-26T04:01:19.041Z,92.12
2019-03-26T04:03:49.736Z,92.40
2019-03-26T04:06:20.447Z,92.55
2019-03-26T04:08:51.424Z,92.59
2019-03-26T04:11:22.513Z,92.77
2019-03-26T04:13:53.253Z,92.96
2019-03-26T04:16:24.219Z,93.17
2019-03-26T04:18:54.911Z,93.26
2019-03-26T04:21:26.196Z,93.18
2019-03-26T04:23:57.510Z,93.06
2019-03-26T04:26:28.489Z,92.57
2019-03-26T04:28:59.178Z,92.13
2019-03-26T04:31:29.969Z,91.68
2019-03-26T04:34:00.729Z,91.61
2019-03-26T04:36:31.395Z,91.60
2019-03-26T04:39:02.086Z,91.61
2019-03-26T04:41:32.831Z,91.53
2019-03-26T04:44:03.518Z,91.69
2019-03-26T04:46:34.382Z,91.00
2019-03-26T04:49:05.214Z,89.53
2019-03-26T04:51:35.938Z,88.10
2019-03-26T04:54:06.790Z,87.46
2019-03-26T04:56:37.491Z,87.36
2019-03-26T04:59:08.174Z,87.31
2019-03-26T05:01:38.835Z,87.23
2019-03-26T05:04:09.567Z,86.81
2019-03-26T05:06:40.244Z,86.57
2019-03-26T05:09:11.405Z,86.06
2019-03-26T05:11:42.342Z,86.02
2019-03-26T05:14:13.050Z,86.12
2019-03-26T05:16:44.111Z,84.89
2019-03-26T05:19:15.029Z,83.88
2019-03-26T05:21:45.984Z,83.24
2019-03-26T05:24:16.628Z,82.56
2019-03-26T05:26:47.681Z,81.96
2019-03-26T05:29:18.379Z,81.79
2019-03-26T05:31:49.339Z,81.49
2019-03-26T05:34:19.987Z,81.60
2019-03-26T05:36:51.868Z,81.77
2019-03-26T05:39:23.072Z,81.70
2019-03-26T05:41:53.828Z,81.81
2019-03-26T05:44:24.477Z,82.28
2019-03-26T05:46:55.304Z,82.25
2019-03-26T05:49:26.343Z,82.30
2019-03-26T05:51:57.316Z,81.58
2019-03-26T05:54:28.332Z,80.86
2019-03-26T05:56:59.224Z,80.07
2019-03-26T05:59:30.262Z,78.66
2019-03-26T06:02:13.248Z,77.88
2019-03-26T06:04:33.356Z,76.93
2019-03-26T06:07:05.286Z,76.20
2019-03-26T06:09:36.359Z,76.12
2019-03-26T06:12:07.343Z,75.85
2019-03-26T06:14:37.993Z,75.57
2019-03-26T06:17:09.814Z,75.41
2019-03-26T06:19:40.458Z,74.43
2019-03-26T06:22:11.511Z,74.82
2019-03-26T06:24:42.555Z,75.30
2019-03-26T06:27:13.212Z,75.29
2019-03-26T06:29:43.904Z,75.90
2019-03-26T06:32:14.602Z,75.83
2019-03-26T06:34:45.272Z,75.76
2019-03-26T06:37:18.171Z,76.10
2019-03-26T06:39:48.320Z,76.37
2019-03-26T06:42:19.029Z,75.59
2019-03-26T06:44:49.951Z,75.93
2019-03-26T06:47:20.715Z,76.40
2019-03-26T06:49:51.368Z,76.01
2019-03-26T06:52:22.330Z,75.40
2019-03-26T06:54:53.226Z,74.07
2019-03-26T06:57:35.006Z,73.30
2019-03-26T06:59:56.259Z,71.85
2019-03-26T07:02:26.942Z,68.94
2019-03-26T07:04:57.632Z,67.49
2019-03-26T07:07:31.771Z,65.84
2019-03-26T07:10:01.265Z,64.82
2019-03-26T07:12:31.936Z,63.39
2019-03-26T07:15:02.621Z,61.13
2019-03-26T07:17:33.332Z,60.09
2019-03-26T07:20:04.677Z,58.34
2019-03-26T07:22:35.431Z,57.37
2019-03-26T07:25:06.721Z,55.77
2019-03-26T07:27:37.841Z,54.79
2019-03-26T07:30:10.573Z,55.07
2019-03-26T07:32:41.301Z,54.22
2019-03-26T07:35:12.280Z,53.98
2019-03-26T07:37:45.407Z,59.52
2019-03-26T07:40:16.000Z,54.65
2019-03-26T07:42:46.691Z,55.74
2019-03-26T07:45:17.440Z,56.20
2019-03-26T07:47:48.308Z,57.17
2019-03-26T07:50:19.023Z,57.24
2019-03-26T07:52:49.655Z,58.10
2019-03-26T07:55:20.420Z,58.13
2019-03-26T07:57:51.069Z,55.83
2019-03-26T08:00:34.098Z,53.87
2019-03-26T08:03:05.006Z,55.24
2019-03-26T08:05:35.852Z,55.37
2019-03-26T08:08:07.245Z,54.54
2019-03-26T08:10:37.922Z,54.32
2019-03-26T08:13:09.161Z,55.84
2019-03-26T08:15:39.849Z,55.74
2019-03-26T08:18:10.505Z,53.75
2019-03-26T08:20:41.181Z,51.84
2019-03-26T08:23:12.098Z,52.39
2019-03-26T08:25:42.982Z,51.51
2019-03-26T08:28:13.991Z,51.48
2019-03-26T08:30:44.991Z,52.73
2019-03-26T08:33:16.113Z,51.07
2019-03-26T08:35:48.476Z,51.89
2019-03-26T08:38:19.179Z,53.02
2019-03-26T08:40:49.863Z,53.61
2019-03-26T08:43:20.504Z,55.85
2019-03-26T08:45:51.475Z,56.96
2019-03-26T08:48:22.433Z,57.74
2019-03-26T08:50:53.343Z,58.25
2019-03-26T08:53:24.133Z,58.25
2019-03-26T08:55:54.768Z,59.20
2019-03-26T08:58:25.444Z,59.40
2019-03-26T09:00:56.397Z,60.71
2019-03-26T09:03:27.381Z,60.74
2019-03-26T09:05:58.042Z,60.41
2019-03-26T09:08:29.311Z,59.78
2019-03-26T09:10:59.996Z,60.07
2019-03-26T09:13:30.665Z,58.94
2019-03-26T09:16:01.434Z,59.02
2019-03-26T09:18:32.113Z,58.34
2019-03-26T09:21:02.794Z,57.98
2019-03-26T09:23:33.731Z,56.22
2019-03-26T09:26:04.456Z,55.96
2019-03-26T09:28:35.157Z,54.01
2019-03-26T09:31:06.124Z,53.23
2019-03-26T09:33:37.019Z,51.37
2019-03-26T09:36:07.706Z,44.76
2019-03-26T09:38:39.475Z,43.96
2019-03-26T09:41:10.238Z,48.17
2019-03-26T09:43:41.094Z,51.26
2019-03-26T09:46:11.752Z,51.09
2019-03-26T09:48:42.421Z,47.66
2019-03-26T09:51:13.062Z,48.11
2019-03-26T09:53:43.835Z,47.18
2019-03-26T09:56:27.703Z,48.35
2019-03-26T09:58:47.292Z,49.54
2019-03-26T10:01:17.971Z,49.19
2019-03-26T10:03:48.984Z,50.92
2019-03-26T10:06:23.717Z,52.14
2019-03-26T10:08:52.962Z,53.42
2019-03-26T10:11:23.723Z,53.89
2019-03-26T10:13:54.362Z,52.61
2019-03-26T10:16:25.077Z,53.40
2019-03-26T10:18:55.812Z,55.09
2019-03-26T10:21:26.487Z,57.18
2019-03-26T10:23:57.382Z,57.59
2019-03-26T10:26:28.157Z,57.46
2019-03-26T10:28:58.826Z,57.27
2019-03-26T10:31:29.485Z,59.20
2019-03-26T10:34:00.417Z,58.98
2019-03-26T10:36:31.454Z,58.86
2019-03-26T10:39:05.401Z,60.47
2019-03-26T10:41:34.509Z,60.16
2019-03-26T10:44:05.551Z,59.48
2019-03-26T10:46:36.463Z,56.24
2019-03-26T10:49:07.142Z,54.22
2019-03-26T10:51:38.148Z,52.24
2019-03-26T10:54:09.186Z,51.48
2019-03-26T10:56:39.837Z,50.99
2019-03-26T10:59:10.792Z,51.27
2019-03-26T11:01:41.464Z,50.96
2019-03-26T11:04:12.126Z,52.19
2019-03-26T11:06:42.843Z,52.26
2019-03-26T11:09:22.994Z,51.52
2019-03-26T11:11:45.986Z,52.28
2019-03-26T11:14:16.708Z,52.00
2019-03-26T11:16:47.469Z,52.03
2019-03-26T11:19:18.129Z,51.34
2019-03-26T11:21:48.880Z,52.36
2019-03-26T11:24:19.555Z,52.98
2019-03-26T11:26:50.354Z,54.03
2019-03-26T11:29:21.425Z,55.41
2019-03-26T11:31:52.107Z,57.25
2019-03-26T11:34:23.058Z,63.95
2019-03-26T11:36:53.712Z,66.13
2019-03-26T11:39:32.550Z,65.59
2019-03-26T11:41:56.978Z,62.47
2019-03-26T11:44:27.607Z,60.68
2019-03-26T11:46:58.314Z,59.39
2019-03-26T11:49:28.974Z,60.87
2019-03-26T11:51:59.660Z,60.17
2019-03-26T11:54:30.323Z,59.17
2019-03-26T11:57:01.090Z,57.36
2019-03-26T11:59:31.922Z,57.76
2019-03-26T12:02:02.559Z,56.56
2019-03-26T12:04:33.190Z,54.90
2019-03-26T12:07:04.150Z,55.48
2019-03-26T12:09:45.503Z,54.32
2019-03-26T12:12:07.562Z,54.28
2019-03-26T12:14:38.243Z,54.41
2019-03-26T12:17:08.999Z,56.21
2019-03-26T12:19:39.684Z,56.63
2019-03-26T12:22:10.319Z,58.92
2019-03-26T12:24:41.005Z,59.17
2019-03-26T12:27:11.648Z,55.93
2019-03-26T12:29:42.346Z,58.55
2019-03-26T12:32:13.591Z,58.02
2019-03-26T12:34:44.237Z,57.62
2019-03-26T12:37:14.936Z,57.21
2019-03-26T12:39:58.613Z,57.79
2019-03-26T12:42:18.089Z,56.75
2019-03-26T12:44:49.320Z,56.19
2019-03-26T12:47:19.996Z,55.54
2019-03-26T12:49:50.674Z,55.53
2019-03-26T12:52:21.340Z,55.86
2019-03-26T12:54:52.195Z,56.64
2019-03-26T12:57:23.392Z,58.55
2019-03-26T12:59:54.121Z,57.69
2019-03-26T13:02:24.816Z,57.63
2019-03-26T13:04:55.541Z,57.73
2019-03-26T13:07:26.645Z,57.76
2019-03-26T13:09:57.430Z,58.59
2019-03-26T13:12:28.353Z,58.82
2019-03-26T13:14:59.497Z,58.33
2019-03-26T13:17:30.682Z,57.81
2019-03-26T13:20:01.413Z,58.32
2019-03-26T13:22:32.173Z,57.40
2019-03-26T13:25:03.205Z,57.70
2019-03-26T13:27:33.899Z,57.73
2019-03-26T13:30:05.843Z,58.97
2019-03-26T13:32:36.507Z,58.59
2019-03-26T13:35:07.902Z,61.35
2019-03-26T13:37:38.849Z,65.17
2019-03-26T13:40:09.765Z,69.75
2019-03-26T13:42:40.409Z,72.84
2019-03-26T13:45:11.927Z,74.73
2019-03-26T13:47:43.114Z,77.06
2019-03-26T13:50:16.023Z,76.70
2019-03-26T13:52:46.789Z,77.25
2019-03-26T13:55:17.483Z,78.28
2019-03-26T13:57:48.115Z,78.29
2019-03-26T14:00:38.443Z,78.98
2019-03-26T14:03:09.579Z,78.68
2019-03-26T14:05:40.333Z,77.40
2019-03-26T14:08:11.128Z,78.09
2019-03-26T14:10:42.027Z,76.81
2019-03-26T14:13:12.762Z,76.36
2019-03-26T14:15:43.475Z,77.25
2019-03-26T14:18:14.169Z,78.07
2019-03-26T14:20:45.568Z,78.67
2019-03-26T14:23:16.245Z,79.29
2019-03-26T14:25:46.931Z,78.60
2019-03-26T14:28:17.884Z,79.16
2019-03-26T14:30:48.769Z,79.46
2019-03-26T14:33:19.519Z,78.58
2019-03-26T14:35:50.566Z,78.77
2019-03-26T14:38:21.557Z,78.45
2019-03-26T14:40:55.368Z,78.53
2019-03-26T14:43:24.945Z,78.23
2019-03-26T14:45:55.911Z,77.81
2019-03-26T14:48:26.870Z,77.90
2019-03-26T14:50:57.850Z,78.24
2019-03-26T14:53:28.770Z,78.31
2019-03-26T14:55:59.499Z,79.16
2019-03-26T14:58:30.171Z,79.64
2019-03-26T15:01:00.844Z,78.99
2019-03-26T15:03:31.582Z,78.85
2019-03-26T15:06:04.569Z,79.09
2019-03-26T15:08:34.648Z,77.78
2019-03-26T15:11:08.277Z,77.66
2019-03-26T15:13:38.081Z,78.14
2019-03-26T15:16:09.002Z,78.64
2019-03-26T15:18:39.992Z,78.57
2019-03-26T15:21:10.762Z,79.25
2019-03-26T15:23:41.446Z,79.52
2019-03-26T15:26:12.131Z,79.31
2019-03-26T15:28:43.031Z,78.95
2019-03-26T15:31:13.659Z,78.84
2019-03-26T15:33:44.330Z,79.27
2019-03-26T15:36:15.487Z,79.12
2019-03-26T15:38:46.481Z,79.37
2019-03-26T15:41:21.758Z,79.24
2019-03-26T15:43:50.031Z,78.99
2019-03-26T15:46:21.015Z,79.42
2019-03-26T15:48:51.748Z,79.44
2019-03-26T15:51:22.515Z,80.09
2019-03-26T15:53:53.170Z,80.12
2019-03-26T15:56:23.899Z,79.59
2019-03-26T15:58:54.579Z,79.29
2019-03-26T16:01:25.372Z,79.36
2019-03-26T16:03:56.483Z,78.87
2019-03-26T16:06:27.527Z,78.24
2019-03-26T16:08:58.261Z,77.74
2019-03-26T16:11:35.580Z,77.01
2019-03-26T16:14:01.418Z,77.25
2019-03-26T16:16:32.261Z,76.72
2019-03-26T16:19:02.918Z,76.38
2019-03-26T16:21:33.635Z,76.50
2019-03-26T16:24:04.509Z,75.96
2019-03-26T16:26:35.254Z,76.58
2019-03-26T16:29:06.016Z,76.44
2019-03-26T16:31:36.776Z,76.10
2019-03-26T16:34:07.425Z,75.75
2019-03-26T16:36:38.064Z,75.63
2019-03-26T16:39:09.911Z,75.86
2019-03-26T16:41:49.021Z,76.55
2019-03-26T16:44:13.360Z,77.50
2019-03-26T16:46:44.142Z,78.54
2019-03-26T16:49:15.086Z,78.37
2019-03-26T16:51:45.803Z,78.19
2019-03-26T16:54:16.452Z,77.95
2019-03-26T16:56:47.391Z,78.12
2019-03-26T16:59:18.098Z,78.41
2019-03-26T17:01:48.816Z,78.68
2019-03-26T17:04:19.696Z,79.08
2019-03-26T17:06:50.380Z,79.45
2019-03-26T17:09:21.076Z,79.73
2019-03-26T17:12:02.437Z,80.04
2019-03-26T17:14:24.623Z,80.55
2019-03-26T17:16:55.287Z,80.89
2019-03-26T17:19:25.944Z,82.11
2019-03-26T17:21:56.936Z,84.18
2019-03-26T17:24:27.570Z,85.77
2019-03-26T17:26:58.212Z,86.65
2019-03-26T17:29:28.929Z,86.60
2019-03-26T17:31:59.801Z,86.42
2019-03-26T17:34:30.751Z,85.64
2019-03-26T17:37:01.412Z,85.80
2019-03-26T17:39:32.077Z,86.61
2019-03-26T17:42:16.218Z,86.78
2019-03-26T17:44:35.371Z,86.74
2019-03-26T17:47:06.020Z,86.60
2019-03-26T17:49:36.807Z,85.93
2019-03-26T17:52:07.456Z,85.14
2019-03-26T17:54:38.357Z,84.37
2019-03-26T17:57:09.071Z,83.55
2019-03-26T17:59:39.819Z,83.55
2019-03-26T18:02:10.570Z,83.39
2019-03-26T18:04:41.530Z,83.33
2019-03-26T18:07:12.274Z,83.68
2019-03-26T18:09:43.085Z,82.98
2019-03-26T18:12:14.256Z,82.68
2019-03-26T18:14:45.406Z,82.86
2019-03-26T18:17:16.167Z,83.45
2019-03-26T18:19:47.136Z,82.91
2019-03-26T18:22:17.786Z,82.96
2019-03-26T18:24:48.439Z,82.78
2019-03-26T18:27:20.201Z,82.73
2019-03-26T18:29:51.120Z,82.87
2019-03-26T18:32:21.800Z,82.91
2019-03-26T18:34:52.443Z,82.34
2019-03-26T18:37:23.118Z,82.13
2019-03-26T18:39:53.790Z,82.19
2019-03-26T18:42:24.503Z,82.10
2019-03-26T18:44:55.171Z,82.15
2019-03-26T18:47:25.815Z,82.83
2019-03-26T18:49:56.477Z,82.28
2019-03-26T18:52:27.155Z,81.75
2019-03-26T18:54:58.100Z,81.61
2019-03-26T18:57:28.810Z,80.33
2019-03-26T18:59:59.525Z,80.18
2019-03-26T19:02:30.332Z,80.34
2019-03-26T19:05:01.058Z,80.39
2019-03-26T19:07:31.708Z,80.22
2019-03-26T19:10:02.608Z,80.47
2019-03-26T19:12:33.263Z,80.26
2019-03-26T19:15:04.606Z,80.05
2019-03-26T19:17:35.838Z,80.16
2019-03-26T19:20:07.279Z,80.17
2019-03-26T19:22:37.921Z,80.09
2019-03-26T19:25:08.794Z,80.08
2019-03-26T19:27:39.570Z,80.16
2019-03-26T19:30:10.782Z,80.91
2019-03-26T19:32:41.823Z,81.12
2019-03-26T19:35:12.999Z,81.90
2019-03-26T19:37:43.763Z,83.52
2019-03-26T19:40:16.123Z,85.22
2019-03-26T19:42:46.843Z,86.22
2019-03-26T19:45:17.595Z,86.94
2019-03-26T19:47:48.477Z,87.71
2019-03-26T19:50:19.765Z,87.99
2019-03-26T19:52:50.421Z,87.90
2019-03-26T19:55:22.202Z,88.09
2019-03-26T19:57:52.877Z,88.80
2019-03-26T20:00:26.735Z,89.15
2019-03-26T20:02:56.572Z,89.45
2019-03-26T20:05:27.224Z,89.70
2019-03-26T20:07:57.910Z,90.09
2019-03-26T20:10:29.060Z,90.48
2019-03-26T20:12:59.697Z,90.49
2019-03-26T20:15:30.499Z,91.00
2019-03-26T20:18:01.170Z,91.56
2019-03-26T20:20:31.850Z,91.92
2019-03-26T20:23:02.575Z,92.30
2019-03-26T20:25:33.208Z,92.52
2019-03-26T20:28:04.332Z,92.53
2019-03-26T20:30:35.009Z,92.97
2019-03-26T20:33:05.818Z,93.31
2019-03-26T20:35:36.542Z,93.70
2019-03-26T20:38:07.217Z,93.90
2019-03-26T20:40:38.028Z,94.23
2019-03-26T20:43:08.678Z,94.61
2019-03-26T20:45:39.390Z,95.01
2019-03-26T20:48:10.096Z,95.31
2019-03-26T20:50:41.226Z,95.62
2019-03-26T20:53:12.113Z,95.92
2019-03-26T20:55:53.583Z,96.12
2019-03-26T20:58:16.045Z,96.28
2019-03-26T21:00:46.807Z,96.47
2019-03-26T21:03:17.600Z,96.67
2019-03-26T21:05:48.336Z,96.98
2019-03-26T21:08:18.989Z,97.12
2019-03-26T21:10:49.646Z,97.20
2019-03-26T21:13:20.409Z,97.25
2019-03-26T21:15:56.995Z,97.32
2019-03-26T21:18:23.660Z,97.37
2019-03-26T21:20:54.980Z,97.45
2019-03-26T21:23:25.720Z,97.39
2019-03-26T21:25:56.748Z,97.39
2019-03-26T21:28:27.626Z,97.14
2019-03-26T21:30:58.330Z,96.92
2019-03-26T21:33:28.996Z,96.52
2019-03-26T21:35:59.625Z,96.16
2019-03-26T21:38:31.119Z,95.90
2019-03-26T21:41:02.253Z,95.56
2019-03-26T21:43:32.915Z,95.24
2019-03-26T21:46:03.673Z,94.87
2019-03-26T21:48:34.389Z,94.39
2019-03-26T21:51:05.098Z,93.91
2019-03-26T21:53:35.839Z,93.77
2019-03-26T21:56:07.243Z,93.41
2019-03-26T21:58:38.378Z,92.87
2019-03-26T22:01:09.061Z,92.89
2019-03-26T22:03:39.993Z,93.19
2019-03-26T22:06:10.722Z,93.50
2019-03-26T22:08:41.360Z,93.30
2019-03-26T22:11:12.290Z,93.17
2019-03-26T22:13:43.799Z,92.98
2019-03-26T22:16:14.578Z,92.91
2019-03-26T22:18:45.472Z,92.63
2019-03-26T22:21:16.216Z,92.46
2019-03-26T22:23:46.912Z,92.54
2019-03-26T22:26:17.714Z,92.83
2019-03-26T22:28:48.398Z,92.79
2019-03-26T22:31:19.071Z,92.98
2019-03-26T22:33:49.714Z,92.44
2019-03-26T22:36:20.371Z,91.82
2019-03-26T22:38:51.139Z,90.92
2019-03-26T22:41:21.876Z,90.77
2019-03-26T22:43:55.107Z,91.10
2019-03-26T22:46:25.373Z,91.29
2019-03-26T22:48:56.083Z,91.77
2019-03-26T22:51:26.740Z,92.54
2019-03-26T22:53:57.767Z,92.92
2019-03-26T22:56:28.752Z,93.19
2019-03-26T22:58:59.443Z,93.55
2019-03-26T23:01:30.314Z,93.85
2019-03-26T23:04:01.019Z,94.05
2019-03-26T23:06:31.748Z,94.32
2019-03-26T23:09:02.432Z,94.37
2019-03-26T23:11:33.077Z,94.37
2019-03-26T23:14:03.740Z,94.15
2019-03-26T23:16:34.388Z,94.03
2019-03-26T23:19:05.145Z,93.93
2019-03-26T23:21:36.213Z,93.94
2019-03-26T23:24:07.151Z,93.81
2019-03-26T23:26:37.811Z,93.98
2019-03-26T23:29:08.765Z,94.12
2019-03-26T23:31:39.815Z,94.36
2019-03-26T23:34:10.497Z,94.24
2019-03-26T23:36:41.834Z,94.51
2019-03-26T23:39:12.580Z,94.64
2019-03-26T23:41:43.214Z,94.72
2019-03-26T23:44:25.224Z,94.73
2019-03-26T23:46:47.253Z,94.60
2019-03-26T23:49:17.956Z,94.22
2019-03-26T23:51:48.645Z,93.87
2019-03-26T23:54:19.327Z,93.66
2019-03-26T23:56:50.242Z,93.63
2019-03-26T23:59:21.160Z,93.67
